Rodey, New Mexico
Current Conditions -  °F | °C
As of 8:35 PM on Saturday 25 Oct 2014 (Local Time) from KLRU Reporting Station
Clear Clear  
Wind Chill: 69°   Ceiling: Unl
Heat Index: 69°   Visibility: 10mi
Dew Point: 44°   Wind: 7mph
Humidity: 39%   Direction: 210°SSW
Pressure: 30.17"   Gusts: NA
Location:  32.586°N, 107.171°W
Report Text: KLRU 260235Z AUTO 21006KT 10SM CLR 21/06 A3017 RMK AO2 T02070064 PWINO
Loading
Personal Weather Stations






























Interactive Weather Map
Tropical Storm Tracking
New forecast layout! Learn more

10-Day Weather Forecast

Advertisements
Track Severe Weather on mobile